createdAt,value
2018-05-11T00:00:00.924Z,17.14
2018-05-11T00:02:28.475Z,17.08
2018-05-11T00:04:56.109Z,17.07
2018-05-11T00:07:23.670Z,17.05
2018-05-11T00:09:51.230Z,16.99
2018-05-11T00:12:18.757Z,16.91
2018-05-11T00:14:46.336Z,16.93
2018-05-11T00:17:13.860Z,16.90
2018-05-11T00:19:41.394Z,16.94
2018-05-11T00:22:09.029Z,16.90
2018-05-11T00:24:36.556Z,16.90
2018-05-11T00:27:04.074Z,16.76
2018-05-11T00:29:31.724Z,16.73
2018-05-11T00:31:59.235Z,16.63
2018-05-11T00:34:26.815Z,16.68
2018-05-11T00:36:54.340Z,16.72
2018-05-11T00:39:21.871Z,16.68
2018-05-11T00:41:49.407Z,16.63
2018-05-11T00:44:16.932Z,16.62
2018-05-11T00:46:44.454Z,16.66
2018-05-11T00:49:11.979Z,16.46
2018-05-11T00:51:39.539Z,16.49
2018-05-11T00:54:07.099Z,16.46
2018-05-11T00:56:34.627Z,16.33
2018-05-11T00:59:02.151Z,16.41
2018-05-11T01:01:29.681Z,16.34
2018-05-11T01:03:57.211Z,16.20
2018-05-11T01:06:24.739Z,16.19
2018-05-11T01:08:52.349Z,16.21
2018-05-11T01:11:19.906Z,16.27
2018-05-11T01:13:47.480Z,16.13
2018-05-11T01:16:15.041Z,16.06
2018-05-11T01:18:42.597Z,15.90
2018-05-11T01:21:10.115Z,15.88
2018-05-11T01:23:37.635Z,15.98
2018-05-11T01:26:05.164Z,15.90
2018-05-11T01:28:32.716Z,15.86
2018-05-11T01:31:00.243Z,15.92
2018-05-11T01:33:27.854Z,15.82
2018-05-11T01:35:55.419Z,15.79
2018-05-11T01:38:22.945Z,15.74
2018-05-11T01:40:50.499Z,15.78
2018-05-11T01:43:18.019Z,15.78
2018-05-11T01:45:45.556Z,15.77
2018-05-11T01:48:13.079Z,15.73
2018-05-11T01:50:40.607Z,15.80
2018-05-11T01:53:08.129Z,15.84
2018-05-11T01:55:35.695Z,15.80
2018-05-11T01:58:03.219Z,15.74
2018-05-11T02:00:30.748Z,15.67
2018-05-11T02:02:58.271Z,15.51
2018-05-11T02:05:25.815Z,15.50
2018-05-11T02:07:53.376Z,15.53
2018-05-11T02:10:20.900Z,15.51
2018-05-11T02:12:48.477Z,15.44
2018-05-11T02:15:16.007Z,15.47
2018-05-11T02:17:43.580Z,15.49
2018-05-11T02:20:11.124Z,15.47
2018-05-11T02:22:38.750Z,15.52
2018-05-11T02:25:06.276Z,15.52
2018-05-11T02:27:33.794Z,15.54
2018-05-11T02:30:01.316Z,15.48
2018-05-11T02:32:28.845Z,15.51
2018-05-11T02:34:56.405Z,15.48
2018-05-11T02:37:24.008Z,15.50
2018-05-11T02:39:51.541Z,15.49
2018-05-11T02:42:19.134Z,15.53
2018-05-11T02:44:46.658Z,15.49
2018-05-11T02:47:14.235Z,15.51
2018-05-11T02:49:41.763Z,15.52
2018-05-11T02:52:09.362Z,15.47
2018-05-11T02:54:36.923Z,15.49
2018-05-11T02:57:04.486Z,15.39
2018-05-11T02:59:32.012Z,15.36
2018-05-11T03:01:59.540Z,15.30
2018-05-11T03:04:27.064Z,15.32
2018-05-11T03:06:54.593Z,15.28
2018-05-11T03:09:22.113Z,15.16
2018-05-11T03:11:49.740Z,15.17
2018-05-11T03:14:17.306Z,15.14
2018-05-11T03:16:44.833Z,15.12
2018-05-11T03:19:12.388Z,15.05
2018-05-11T03:21:39.923Z,15.00
2018-05-11T03:24:07.443Z,15.00
2018-05-11T03:26:35.003Z,14.88
2018-05-11T03:29:02.524Z,14.92
2018-05-11T03:31:30.107Z,14.93
2018-05-11T03:33:57.622Z,14.92
2018-05-11T03:36:25.245Z,14.90
2018-05-11T03:38:52.787Z,14.85
2018-05-11T03:41:20.299Z,14.91
2018-05-11T03:43:47.843Z,14.80
2018-05-11T03:46:15.468Z,14.80
2018-05-11T03:48:43.001Z,14.80
2018-05-11T03:51:10.560Z,14.80
2018-05-11T03:53:38.120Z,14.69
2018-05-11T03:56:05.657Z,14.66
2018-05-11T03:58:33.182Z,14.73
2018-05-11T04:01:00.734Z,14.81
2018-05-11T04:03:40.309Z,14.85
2018-05-11T04:06:08.860Z,14.80
2018-05-11T04:08:41.948Z,14.75
2018-05-11T04:11:09.467Z,14.79
2018-05-11T04:13:37.000Z,14.84
2018-05-11T04:16:04.600Z,14.83
2018-05-11T04:18:32.124Z,14.80
2018-05-11T04:20:59.651Z,14.84
2018-05-11T04:23:27.196Z,14.85
2018-05-11T04:25:54.771Z,14.86
2018-05-11T04:28:22.298Z,14.85
2018-05-11T04:30:49.886Z,14.77
2018-05-11T04:33:17.415Z,14.81
2018-05-11T04:35:44.939Z,14.77
2018-05-11T04:38:12.571Z,14.80
2018-05-11T04:40:40.099Z,14.85
2018-05-11T04:43:07.692Z,14.89
2018-05-11T04:45:35.216Z,14.83
2018-05-11T04:48:02.794Z,14.82
2018-05-11T04:50:30.376Z,14.79
2018-05-11T04:52:57.926Z,14.80
2018-05-11T04:55:25.445Z,14.83
2018-05-11T04:57:52.989Z,14.81
2018-05-11T05:00:20.601Z,14.80
2018-05-11T05:02:48.128Z,14.85
2018-05-11T05:05:15.656Z,14.89
2018-05-11T05:07:43.183Z,14.83
2018-05-11T05:10:10.737Z,14.93
2018-05-11T05:12:38.263Z,14.98
2018-05-11T05:15:05.868Z,14.97
2018-05-11T05:17:33.400Z,15.00
2018-05-11T05:20:00.987Z,15.04
2018-05-11T05:22:28.536Z,15.03
2018-05-11T05:24:56.107Z,15.05
2018-05-11T05:27:23.630Z,15.08
2018-05-11T05:29:51.232Z,15.08
2018-05-11T05:32:18.765Z,15.09
2018-05-11T05:34:46.302Z,15.13
2018-05-11T05:37:13.830Z,15.02
2018-05-11T05:39:41.454Z,15.09
2018-05-11T05:42:09.027Z,15.04
2018-05-11T05:44:36.573Z,15.09
2018-05-11T05:47:04.147Z,15.11
2018-05-11T05:49:31.707Z,15.18
2018-05-11T05:51:59.266Z,15.16
2018-05-11T05:54:26.783Z,15.21
2018-05-11T05:56:54.316Z,15.13
2018-05-11T05:59:21.934Z,15.18
2018-05-11T06:01:49.464Z,15.11
2018-05-11T06:04:17.000Z,15.10
2018-05-11T06:06:44.550Z,15.02
2018-05-11T06:09:12.186Z,15.06
2018-05-11T06:11:39.731Z,15.06
2018-05-11T06:14:07.272Z,15.12
2018-05-11T06:16:34.866Z,15.16
2018-05-11T06:19:02.390Z,15.08
2018-05-11T06:21:29.987Z,15.12
2018-05-11T06:23:57.511Z,15.21
2018-05-11T06:26:25.039Z,15.18
2018-05-11T06:28:52.565Z,15.23
2018-05-11T06:31:20.093Z,15.19
2018-05-11T06:33:47.684Z,15.24
2018-05-11T06:36:15.279Z,15.33
2018-05-11T06:38:42.911Z,15.36
2018-05-11T06:41:10.468Z,15.43
2018-05-11T06:43:38.011Z,15.40
2018-05-11T06:46:05.654Z,15.42
2018-05-11T06:48:33.112Z,15.49
2018-05-11T06:51:00.632Z,15.39
2018-05-11T06:53:28.167Z,15.40
2018-05-11T06:55:55.766Z,15.43
2018-05-11T06:58:23.284Z,15.46
2018-05-11T07:00:50.829Z,15.43
2018-05-11T07:03:18.356Z,15.43
2018-05-11T07:05:45.969Z,15.45
2018-05-11T07:08:13.510Z,15.48
2018-05-11T07:10:41.114Z,15.48
2018-05-11T07:13:08.627Z,15.49
2018-05-11T07:15:36.157Z,15.48
2018-05-11T07:18:03.683Z,15.51
2018-05-11T07:20:31.269Z,15.46
2018-05-11T07:22:58.809Z,15.47
2018-05-11T07:25:26.341Z,15.46
2018-05-11T07:27:53.907Z,15.47
2018-05-11T07:30:21.444Z,15.51
2018-05-11T07:32:48.974Z,15.58
2018-05-11T07:35:16.505Z,15.57
2018-05-11T07:37:44.036Z,15.64
2018-05-11T07:40:11.571Z,15.66
2018-05-11T07:42:39.113Z,15.69
2018-05-11T07:45:06.663Z,15.71
2018-05-11T07:47:34.192Z,15.76
2018-05-11T07:50:01.718Z,15.80
2018-05-11T07:52:29.266Z,15.85
2018-05-11T07:54:56.804Z,15.96
2018-05-11T07:57:24.351Z,16.02
2018-05-11T07:59:51.881Z,16.02
2018-05-11T08:02:19.484Z,16.07
2018-05-11T08:04:47.045Z,16.10
2018-05-11T08:07:14.579Z,16.06
2018-05-11T08:09:42.125Z,16.12
2018-05-11T08:12:09.655Z,16.13
2018-05-11T08:14:37.199Z,16.08
2018-05-11T08:17:04.783Z,16.14
2018-05-11T08:19:32.339Z,16.18
2018-05-11T08:21:59.885Z,16.21
2018-05-11T08:24:27.440Z,16.20
2018-05-11T08:26:55.085Z,16.16
2018-05-11T08:29:22.525Z,16.19
2018-05-11T08:31:50.181Z,16.28
2018-05-11T08:34:17.761Z,16.39
2018-05-11T08:36:45.321Z,16.43
2018-05-11T08:39:12.868Z,16.52
2018-05-11T08:41:40.397Z,16.56
2018-05-11T08:44:07.927Z,16.58
2018-05-11T08:46:35.504Z,16.47
2018-05-11T08:49:03.062Z,16.51
2018-05-11T08:51:30.609Z,16.56
2018-05-11T08:53:58.125Z,16.58
2018-05-11T08:56:25.640Z,16.55
2018-05-11T08:58:53.183Z,16.57
2018-05-11T09:01:20.704Z,16.54
2018-05-11T09:03:48.248Z,16.56
2018-05-11T09:06:15.816Z,16.58
2018-05-11T09:08:43.366Z,16.51
2018-05-11T09:11:10.915Z,16.44
2018-05-11T09:13:38.489Z,16.57
2018-05-11T09:16:06.016Z,16.63
2018-05-11T09:18:33.556Z,16.61
2018-05-11T09:21:01.090Z,16.69
2018-05-11T09:23:28.670Z,16.66
2018-05-11T09:25:56.196Z,16.70
2018-05-11T09:28:23.730Z,16.65
2018-05-11T09:30:51.261Z,16.71
2018-05-11T09:33:18.786Z,16.75
2018-05-11T09:35:46.337Z,16.71
2018-05-11T09:38:13.887Z,16.77
2018-05-11T09:40:41.412Z,16.81
2018-05-11T09:43:08.951Z,16.82
2018-05-11T09:45:36.482Z,16.87
2018-05-11T09:48:04.013Z,16.98
2018-05-11T09:50:31.547Z,17.06
2018-05-11T09:52:59.092Z,17.11
2018-05-11T09:55:26.625Z,17.25
2018-05-11T09:57:54.155Z,17.32
2018-05-11T10:00:26.541Z,17.33
2018-05-11T10:02:54.177Z,17.32
2018-05-11T10:05:21.718Z,17.39
2018-05-11T10:07:49.321Z,17.31
2018-05-11T10:10:16.836Z,17.39
2018-05-11T10:12:44.382Z,17.50
2018-05-11T10:15:11.916Z,17.46
2018-05-11T10:17:39.445Z,17.70
2018-05-11T10:20:06.977Z,17.82
2018-05-11T10:22:34.564Z,17.96
2018-05-11T10:25:02.137Z,18.12
2018-05-11T10:27:29.689Z,18.12
2018-05-11T10:29:57.261Z,18.15
2018-05-11T10:32:24.825Z,18.06
2018-05-11T10:34:52.371Z,18.01
2018-05-11T10:37:19.914Z,18.01
2018-05-11T10:39:47.522Z,17.97
2018-05-11T10:42:15.068Z,17.97
2018-05-11T10:44:42.630Z,17.95
2018-05-11T10:47:10.159Z,17.84
2018-05-11T10:49:37.675Z,17.86
2018-05-11T10:52:05.208Z,17.95
2018-05-11T10:54:32.727Z,17.84
2018-05-11T10:57:00.276Z,17.72
2018-05-11T10:59:27.812Z,17.70
2018-05-11T11:01:55.581Z,17.83
2018-05-11T11:04:23.240Z,17.91
2018-05-11T11:06:50.800Z,17.92
2018-05-11T11:09:18.364Z,18.10
2018-05-11T11:11:45.923Z,18.10
2018-05-11T11:14:13.448Z,18.09
2018-05-11T11:16:41.075Z,18.07
2018-05-11T11:19:08.763Z,18.19
2018-05-11T11:21:36.444Z,18.09
2018-05-11T11:24:03.999Z,18.15
2018-05-11T11:26:31.556Z,18.10
2018-05-11T11:28:59.088Z,18.05
2018-05-11T11:31:26.627Z,18.14
2018-05-11T11:33:54.208Z,18.06
2018-05-11T11:36:21.915Z,18.14
2018-05-11T11:38:49.595Z,18.10
2018-05-11T11:41:17.160Z,18.16
2018-05-11T11:43:44.716Z,18.12
2018-05-11T11:46:12.291Z,18.09
2018-05-11T11:48:39.868Z,17.96
2018-05-11T11:51:07.407Z,18.08
2018-05-11T11:53:34.950Z,18.15
2018-05-11T11:56:02.485Z,18.09
2018-05-11T11:58:30.111Z,18.08
2018-05-11T12:00:57.639Z,17.99
2018-05-11T12:03:25.202Z,18.09
2018-05-11T12:05:52.735Z,18.13
2018-05-11T12:08:20.317Z,18.13
2018-05-11T12:10:47.837Z,18.07
2018-05-11T12:13:15.370Z,18.05
2018-05-11T12:15:42.891Z,18.11
2018-05-11T12:18:10.452Z,18.16
2018-05-11T12:20:38.009Z,18.16
2018-05-11T12:23:05.749Z,18.27
2018-05-11T12:25:33.416Z,18.23
2018-05-11T12:28:00.965Z,18.28
2018-05-11T12:30:28.524Z,18.23
2018-05-11T12:32:56.049Z,18.20
2018-05-11T12:35:23.586Z,18.18
2018-05-11T12:37:51.206Z,18.20
2018-05-11T12:40:18.733Z,18.06
2018-05-11T12:42:46.258Z,18.15
2018-05-11T12:45:13.820Z,17.86
2018-05-11T12:47:41.465Z,17.88
2018-05-11T12:50:09.108Z,17.85
2018-05-11T12:52:36.664Z,17.84
2018-05-11T12:55:04.225Z,18.02
2018-05-11T12:57:31.739Z,18.08
2018-05-11T12:59:59.295Z,18.08
2018-05-11T13:02:26.823Z,18.07
2018-05-11T13:04:54.488Z,18.09
2018-05-11T13:07:22.023Z,18.04
2018-05-11T13:09:49.557Z,18.08
2018-05-11T13:12:17.082Z,18.11
2018-05-11T13:14:44.706Z,18.03
2018-05-11T13:17:12.275Z,18.06
2018-05-11T13:19:39.834Z,18.04
2018-05-11T13:22:07.353Z,17.99
2018-05-11T13:24:34.885Z,18.04
2018-05-11T13:27:02.408Z,17.99
2018-05-11T13:29:30.002Z,18.02
2018-05-11T13:31:57.619Z,18.01
2018-05-11T13:34:25.196Z,17.84
2018-05-11T13:36:52.771Z,18.00
2018-05-11T13:39:20.304Z,18.05
2018-05-11T13:41:47.833Z,18.08
2018-05-11T13:44:15.351Z,18.10
2018-05-11T13:46:42.903Z,18.09
2018-05-11T13:49:10.480Z,18.07
2018-05-11T13:51:38.016Z,18.12
2018-05-11T13:54:05.559Z,18.12
2018-05-11T13:56:33.135Z,18.09
2018-05-11T13:59:00.650Z,18.17
2018-05-11T14:01:28.217Z,18.20
2018-05-11T14:03:55.773Z,18.22
2018-05-11T14:06:23.310Z,18.18
2018-05-11T14:08:50.846Z,18.23
2018-05-11T14:11:18.377Z,18.28
2018-05-11T14:13:45.904Z,18.29
2018-05-11T14:16:13.451Z,18.31
2018-05-11T14:18:41.029Z,18.33
2018-05-11T14:21:08.569Z,18.31
2018-05-11T14:23:36.105Z,18.31
2018-05-11T14:26:03.636Z,18.39
2018-05-11T14:28:31.173Z,18.36
2018-05-11T14:30:58.692Z,18.42
2018-05-11T14:33:26.251Z,18.36
2018-05-11T14:35:53.804Z,18.44
2018-05-11T14:38:21.339Z,18.23
2018-05-11T14:40:48.869Z,18.30
2018-05-11T14:43:16.388Z,18.35
2018-05-11T14:45:43.905Z,18.47
2018-05-11T14:48:11.425Z,18.41
2018-05-11T14:50:38.977Z,18.07
2018-05-11T14:53:06.557Z,18.18
2018-05-11T14:55:34.102Z,18.28
2018-05-11T14:58:01.655Z,18.22
2018-05-11T15:00:29.192Z,18.34
2018-05-11T15:02:56.723Z,18.40
2018-05-11T15:05:24.253Z,18.34
2018-05-11T15:07:51.813Z,18.30
2018-05-11T15:10:19.399Z,18.30
2018-05-11T15:12:46.981Z,18.35
2018-05-11T15:15:14.509Z,18.36
2018-05-11T15:17:42.062Z,18.35
2018-05-11T15:20:09.621Z,18.36
2018-05-11T15:22:37.176Z,18.34
2018-05-11T15:25:04.695Z,18.31
2018-05-11T15:27:32.217Z,18.29
2018-05-11T15:29:59.751Z,18.31
2018-05-11T15:32:27.290Z,18.30
2018-05-11T15:34:54.810Z,18.30
2018-05-11T15:37:22.338Z,18.32
2018-05-11T15:39:50.036Z,18.32
2018-05-11T15:42:17.582Z,18.30
2018-05-11T15:44:45.442Z,18.28
2018-05-11T15:47:12.977Z,18.21
2018-05-11T15:49:40.538Z,18.14
2018-05-11T15:52:08.069Z,18.12
2018-05-11T15:54:35.663Z,18.12
2018-05-11T15:57:03.187Z,18.11
2018-05-11T15:59:30.703Z,18.09
2018-05-11T16:01:58.236Z,18.09
2018-05-11T16:04:25.783Z,18.09
2018-05-11T16:06:53.359Z,18.05
2018-05-11T16:09:20.926Z,18.04
2018-05-11T16:11:48.450Z,18.06
2018-05-11T16:14:16.567Z,18.03
2018-05-11T16:16:44.097Z,18.00
2018-05-11T16:19:11.612Z,17.98
2018-05-11T16:21:39.150Z,17.95
2018-05-11T16:24:06.684Z,17.87
2018-05-11T16:26:34.248Z,17.90
2018-05-11T16:29:01.768Z,17.91
2018-05-11T16:31:29.369Z,17.88
2018-05-11T16:33:56.917Z,17.86
2018-05-11T16:36:24.622Z,17.87
2018-05-11T16:38:52.310Z,17.82
2018-05-11T16:41:20.898Z,17.81
2018-05-11T16:43:48.429Z,17.80
2018-05-11T16:46:15.960Z,17.78
2018-05-11T16:48:43.505Z,17.76
2018-05-11T16:51:11.032Z,17.75
2018-05-11T16:53:38.622Z,17.75
2018-05-11T16:56:06.209Z,17.75
2018-05-11T16:58:33.740Z,17.69
2018-05-11T17:01:01.330Z,17.73
2018-05-11T17:03:28.976Z,17.64
2018-05-11T17:05:56.551Z,17.62
2018-05-11T17:08:24.075Z,17.61
2018-05-11T17:10:51.608Z,17.61
2018-05-11T17:13:19.155Z,17.58
2018-05-11T17:15:46.689Z,17.57
2018-05-11T17:18:14.216Z,17.56
2018-05-11T17:20:41.743Z,17.52
2018-05-11T17:23:09.272Z,17.56
2018-05-11T17:25:36.812Z,17.53
2018-05-11T17:28:04.365Z,17.44
2018-05-11T17:30:31.888Z,17.45
2018-05-11T17:32:59.547Z,17.41
2018-05-11T17:35:27.183Z,17.43
2018-05-11T17:37:54.703Z,17.46
2018-05-11T17:40:22.236Z,17.43
2018-05-11T17:42:49.778Z,17.41
2018-05-11T17:45:17.305Z,17.37
2018-05-11T17:47:44.847Z,17.36
2018-05-11T17:50:12.384Z,17.40
2018-05-11T17:52:39.912Z,17.39
2018-05-11T17:55:07.436Z,17.37
2018-05-11T17:57:34.958Z,17.36
2018-05-11T18:00:02.479Z,17.30
2018-05-11T18:02:29.998Z,17.30
2018-05-11T18:04:57.525Z,17.28
2018-05-11T18:07:25.040Z,17.32
2018-05-11T18:09:52.567Z,17.25
2018-05-11T18:12:20.091Z,17.31
2018-05-11T18:14:47.639Z,17.25
2018-05-11T18:17:15.173Z,17.20
2018-05-11T18:19:42.974Z,17.24
2018-05-11T18:22:10.530Z,17.22
2018-05-11T18:24:38.179Z,17.13
2018-05-11T18:27:05.925Z,17.07
2018-05-11T18:29:33.487Z,17.13
2018-05-11T18:32:01.003Z,17.08
2018-05-11T18:34:28.532Z,17.14
2018-05-11T18:36:56.043Z,17.14
2018-05-11T18:39:23.558Z,17.17
2018-05-11T18:41:51.076Z,17.04
2018-05-11T18:44:18.591Z,16.91
2018-05-11T18:46:46.126Z,16.84
2018-05-11T18:49:13.649Z,16.77
2018-05-11T18:51:41.335Z,16.74
2018-05-11T18:54:09.132Z,16.76
2018-05-11T18:56:36.542Z,16.64
2018-05-11T18:59:04.101Z,16.69
2018-05-11T19:01:31.668Z,16.66
2018-05-11T19:03:59.222Z,16.56
2018-05-11T19:06:26.746Z,16.48
2018-05-11T19:08:54.269Z,16.37
2018-05-11T19:11:21.809Z,16.44
2018-05-11T19:13:49.324Z,16.48
2018-05-11T19:16:16.840Z,16.37
2018-05-11T19:18:44.373Z,16.34
2018-05-11T19:21:11.888Z,16.29
2018-05-11T19:23:39.452Z,16.27
2018-05-11T19:26:07.060Z,16.22
2018-05-11T19:28:34.674Z,16.16
2018-05-11T19:31:02.252Z,16.21
2018-05-11T19:33:29.838Z,16.18
2018-05-11T19:35:57.428Z,16.15
2018-05-11T19:38:24.960Z,16.12
2018-05-11T19:40:52.485Z,16.09
2018-05-11T19:43:20.003Z,16.10
2018-05-11T19:45:47.532Z,16.04
2018-05-11T19:48:15.064Z,16.01
2018-05-11T19:50:42.584Z,15.93
2018-05-11T19:53:10.108Z,15.95
2018-05-11T19:55:37.645Z,15.87
2018-05-11T19:58:05.204Z,15.87
2018-05-11T20:00:32.719Z,15.86
2018-05-11T20:03:00.248Z,15.87
2018-05-11T20:05:27.776Z,15.89
2018-05-11T20:07:55.311Z,15.86
2018-05-11T20:10:22.839Z,15.82
2018-05-11T20:12:50.361Z,15.80
2018-05-11T20:15:17.884Z,15.75
2018-05-11T20:17:45.420Z,15.70
2018-05-11T20:20:12.948Z,15.69
2018-05-11T20:22:40.476Z,15.71
2018-05-11T20:25:08.014Z,15.66
2018-05-11T20:27:35.569Z,15.64
2018-05-11T20:30:03.103Z,15.56
2018-05-11T20:32:30.633Z,15.61
2018-05-11T20:34:58.243Z,15.59
2018-05-11T20:37:25.708Z,15.59
2018-05-11T20:39:53.242Z,15.58
2018-05-11T20:42:20.766Z,15.60
2018-05-11T20:44:48.298Z,15.60
2018-05-11T20:47:15.845Z,15.58
2018-05-11T20:49:43.412Z,15.56
2018-05-11T20:52:10.940Z,15.51
2018-05-11T20:54:38.477Z,15.42
2018-05-11T20:57:06.010Z,15.40
2018-05-11T20:59:33.549Z,15.45
2018-05-11T21:02:01.072Z,15.47
2018-05-11T21:04:28.607Z,15.47
2018-05-11T21:06:56.128Z,15.45
2018-05-11T21:09:23.656Z,15.48
2018-05-11T21:11:51.177Z,15.47
2018-05-11T21:14:18.703Z,15.46
2018-05-11T21:16:46.252Z,15.41
2018-05-11T21:19:13.785Z,15.41
2018-05-11T21:21:41.350Z,15.41
2018-05-11T21:24:08.877Z,15.35
2018-05-11T21:26:36.390Z,15.31
2018-05-11T21:29:06.185Z,15.31
2018-05-11T21:31:34.006Z,15.31
2018-05-11T21:34:01.927Z,15.27
2018-05-11T21:36:29.661Z,15.23
2018-05-11T21:38:57.217Z,15.22
2018-05-11T21:41:24.769Z,15.20
2018-05-11T21:43:52.327Z,15.17
2018-05-11T21:46:19.854Z,15.14
2018-05-11T21:48:47.393Z,15.12
2018-05-11T21:51:14.938Z,15.07
2018-05-11T21:53:42.465Z,15.02
2018-05-11T21:56:09.984Z,15.02
2018-05-11T21:58:37.509Z,14.99
2018-05-11T22:01:05.046Z,14.93
2018-05-11T22:03:32.570Z,14.91
2018-05-11T22:06:00.318Z,14.88
2018-05-11T22:08:27.810Z,14.84
2018-05-11T22:10:55.335Z,14.81
2018-05-11T22:13:22.890Z,14.80
2018-05-11T22:15:50.420Z,14.80
2018-05-11T22:18:17.971Z,14.77
2018-05-11T22:20:45.520Z,14.75
2018-05-11T22:23:13.060Z,14.69
2018-05-11T22:25:40.600Z,14.66
2018-05-11T22:28:08.180Z,14.66
2018-05-11T22:30:35.724Z,14.64
2018-05-11T22:33:03.261Z,14.61
2018-05-11T22:35:30.807Z,14.58
2018-05-11T22:37:58.344Z,14.54
2018-05-11T22:40:25.927Z,14.49
2018-05-11T22:42:53.455Z,14.49
2018-05-11T22:45:21.008Z,14.45
2018-05-11T22:47:48.541Z,14.44
2018-05-11T22:50:16.140Z,14.43
2018-05-11T22:52:43.674Z,14.41
2018-05-11T22:55:11.211Z,14.39
2018-05-11T22:57:38.749Z,14.35
2018-05-11T23:00:06.272Z,14.34
2018-05-11T23:02:33.796Z,14.28
2018-05-11T23:05:01.327Z,14.28
2018-05-11T23:07:28.853Z,14.22
2018-05-11T23:09:56.405Z,14.16
2018-05-11T23:12:23.936Z,14.16
2018-05-11T23:14:51.464Z,14.16
2018-05-11T23:17:18.981Z,14.13
2018-05-11T23:19:46.504Z,14.07
2018-05-11T23:22:14.039Z,14.07
2018-05-11T23:24:41.574Z,14.07
2018-05-11T23:27:09.098Z,14.03
2018-05-11T23:29:36.635Z,14.04
2018-05-11T23:32:04.184Z,14.01
2018-05-11T23:34:31.708Z,14.01
2018-05-11T23:36:59.235Z,14.01
2018-05-11T23:39:26.768Z,14.00
2018-05-11T23:41:54.288Z,13.95
2018-05-11T23:44:21.814Z,13.95
2018-05-11T23:46:49.348Z,13.92
2018-05-11T23:49:16.909Z,13.92
2018-05-11T23:51:44.441Z,13.91
2018-05-11T23:54:11.965Z,13.88
2018-05-11T23:56:39.495Z,13.87
2018-05-11T23:59:07.026Z,13.86
